Time;durP1;ratioP1;P1;durP2;ratioP2;P2;SDS_P1;SDS_P2;PMS_P1;PMS_P2;Temp;Humidity;BMP_temperature;BMP_pressure;BME280_temperature;BME280_humidity;BME280_pressure;Samples;Min_cycle;Max_cycle;Signal;HPM_P1;HPM_P2
2021/06/12 00:00:34;;;;;;;8.45;5.53;;;;;;;;;;5030671;28;20072;-55
2021/06/12 00:03:01;;;;;;;6.57;4.38;;;;;;;;;;5018289;28;20034;-51
2021/06/12 00:05:27;;;;;;;8.35;4.93;;;;;;;;;;5028417;28;20534;-52
2021/06/12 00:07:53;;;;;;;9.32;4.93;;;;;;;;;;5015934;28;20070;-50
2021/06/12 00:10:21;;;;;;;6.47;4.63;;;;;;;;;;5018731;28;20053;-50
2021/06/12 00:12:48;;;;;;;6.20;4.90;;;;;;;;;;5018754;28;20173;-51
2021/06/12 00:15:14;;;;;;;5.82;4.88;;;;;;;;;;5019448;28;20077;-50
2021/06/12 00:17:40;;;;;;;8.40;5.28;;;;;;;;;;5015869;28;20034;-50
2021/06/12 00:20:07;;;;;;;5.95;4.90;;;;;;;;;;5016509;28;20068;-50
2021/06/12 00:22:33;;;;;;;5.97;4.85;;;;;;;;;;5019710;28;20093;-49
2021/06/12 00:24:59;;;;;;;6.00;4.88;;;;;;;;;;5025904;28;20144;-53
2021/06/12 00:27:25;;;;;;;6.22;5.00;;;;;;;;;;5019768;28;20018;-52
2021/06/12 00:29:51;;;;;;;5.40;4.85;;;;;;;;;;5032492;28;20026;-52
2021/06/12 00:32:17;;;;;;;6.28;5.18;;;;;;;;;;5018025;28;20068;-50
2021/06/12 00:34:43;;;;;;;6.05;5.28;;;;;;;;;;5014904;28;20034;-50
2021/06/12 00:37:10;;;;;;;7.10;4.82;;;;;;;;;;5016973;28;20073;-49
2021/06/12 00:39:36;;;;;;;10.02;5.43;;;;;;;;;;5013793;28;20070;-49
2021/06/12 00:42:02;;;;;;;7.10;4.85;;;;;;;;;;5013270;28;20425;-51
2021/06/12 00:44:28;;;;;;;6.50;5.03;;;;;;;;;;5013119;28;20033;-49
2021/06/12 00:46:53;;;;;;;7.78;5.22;;;;;;;;;;5013630;28;20085;-49
2021/06/12 00:49:20;;;;;;;6.97;5.72;;;;;;;;;;5014099;28;20030;-50
2021/06/12 00:51:48;;;;;;;11.20;5.93;;;;;;;;;;5016266;28;20034;-51
2021/06/12 00:54:14;;;;;;;7.90;5.13;;;;;;;;;;5013994;28;20052;-50
2021/06/12 00:56:40;;;;;;;7.07;5.43;;;;;;;;;;5019865;28;20029;-50
2021/06/12 00:59:06;;;;;;;6.13;5.00;;;;;;;;;;5014768;28;20034;-50
2021/06/12 01:01:32;;;;;;;7.10;5.53;;;;;;;;;;5018726;28;20109;-51
2021/06/12 01:03:58;;;;;;;6.70;5.47;;;;;;;;;;5019506;28;20468;-50
2021/06/12 01:06:24;;;;;;;6.97;4.97;;;;;;;;;;5013791;28;20044;-48
2021/06/12 01:08:50;;;;;;;8.60;4.97;;;;;;;;;;5013583;28;20030;-48
2021/06/12 01:11:17;;;;;;;6.60;5.50;;;;;;;;;;5015457;28;20022;-50
2021/06/12 01:13:49;;;;;;;7.65;5.25;;;;;;;;;;5023027;28;20044;-49
2021/06/12 01:16:20;;;;;;;6.55;5.22;;;;;;;;;;5013148;28;20048;-51
2021/06/12 01:18:49;;;;;;;6.22;5.00;;;;;;;;;;5014168;28;20347;-50
2021/06/12 01:21:20;;;;;;;7.95;5.68;;;;;;;;;;5012918;28;20045;-48
2021/06/12 01:23:46;;;;;;;10.38;5.65;;;;;;;;;;5019476;28;20022;-49
2021/06/12 01:26:29;;;;;;;6.82;5.30;;;;;;;;;;5017104;28;20339;-48
2021/06/12 01:29:04;;;;;;;6.25;5.05;;;;;;;;;;5011088;28;20132;-48
2021/06/12 01:31:31;;;;;;;7.50;5.43;;;;;;;;;;5017170;28;20060;-48
2021/06/12 01:33:58;;;;;;;6.50;5.25;;;;;;;;;;5014530;28;20041;-49
2021/06/12 01:36:24;;;;;;;8.43;6.03;;;;;;;;;;5012682;28;20108;-49
2021/06/12 01:38:52;;;;;;;6.25;4.70;;;;;;;;;;5013182;28;20029;-49
2021/06/12 01:41:21;;;;;;;6.65;4.93;;;;;;;;;;5011088;28;20401;-49
2021/06/12 01:43:47;;;;;;;6.28;5.00;;;;;;;;;;5013622;28;20077;-48
2021/06/12 01:46:14;;;;;;;6.43;4.82;;;;;;;;;;5018190;28;20018;-49
2021/06/12 01:48:41;;;;;;;6.80;5.13;;;;;;;;;;5014294;28;20021;-49
2021/06/12 01:51:08;;;;;;;7.30;5.40;;;;;;;;;;5012828;28;20108;-49
2021/06/12 01:53:35;;;;;;;9.82;5.25;;;;;;;;;;5013725;28;20061;-49
2021/06/12 01:56:02;;;;;;;7.45;5.30;;;;;;;;;;5012644;28;20029;-48
2021/06/12 01:58:28;;;;;;;6.25;5.00;;;;;;;;;;5007925;28;20026;-48
2021/06/12 02:00:55;;;;;;;5.80;5.07;;;;;;;;;;5016955;28;20029;-48
2021/06/12 02:03:22;;;;;;;5.75;5.15;;;;;;;;;;5032222;28;20079;-48
2021/06/12 02:05:49;;;;;;;8.05;5.75;;;;;;;;;;5026617;28;20073;-48
2021/06/12 02:08:15;;;;;;;8.15;5.78;;;;;;;;;;5012160;28;20033;-52
2021/06/12 02:10:42;;;;;;;10.38;4.82;;;;;;;;;;5012118;28;20112;-48
2021/06/12 02:13:08;;;;;;;10.02;5.85;;;;;;;;;;5024606;28;20113;-48
2021/06/12 02:15:35;;;;;;;7.22;5.45;;;;;;;;;;5013368;28;20549;-48
2021/06/12 02:18:04;;;;;;;9.63;5.55;;;;;;;;;;5028031;28;20112;-50
2021/06/12 02:20:30;;;;;;;6.55;5.43;;;;;;;;;;5015903;28;20486;-49
2021/06/12 02:22:57;;;;;;;5.57;4.97;;;;;;;;;;5019721;28;20108;-51
2021/06/12 02:25:24;;;;;;;9.73;5.78;;;;;;;;;;5021640;28;20109;-48
2021/06/12 02:27:53;;;;;;;8.02;5.95;;;;;;;;;;5029745;28;20078;-51
2021/06/12 02:30:20;;;;;;;8.00;5.80;;;;;;;;;;5005698;28;20033;-51
2021/06/12 02:32:48;;;;;;;11.25;6.55;;;;;;;;;;5020444;28;20437;-48
2021/06/12 02:35:14;;;;;;;6.63;5.80;;;;;;;;;;5020434;28;20108;-48
2021/06/12 02:37:41;;;;;;;7.78;5.65;;;;;;;;;;5019063;28;20172;-48
2021/06/12 02:40:08;;;;;;;7.30;5.82;;;;;;;;;;5016104;28;20105;-49
2021/06/12 02:42:35;;;;;;;8.07;5.28;;;;;;;;;;5019630;28;20030;-50
2021/06/12 02:45:01;;;;;;;7.38;5.20;;;;;;;;;;5019050;28;20536;-48
2021/06/12 02:47:28;;;;;;;7.72;5.68;;;;;;;;;;5017204;28;20026;-48
2021/06/12 02:49:57;;;;;;;9.85;5.63;;;;;;;;;;5017482;28;20445;-50
2021/06/12 02:52:25;;;;;;;5.93;5.18;;;;;;;;;;5018212;28;20514;-49
2021/06/12 02:54:52;;;;;;;7.57;5.28;;;;;;;;;;5017175;28;20463;-49
2021/06/12 02:57:18;;;;;;;7.50;5.57;;;;;;;;;;5021724;28;20466;-48
2021/06/12 02:59:44;;;;;;;6.63;5.00;;;;;;;;;;5021650;28;20026;-48
2021/06/12 03:02:13;;;;;;;7.60;5.88;;;;;;;;;;5017518;28;20103;-48
2021/06/12 03:04:39;;;;;;;9.45;5.43;;;;;;;;;;5013537;28;20022;-48
2021/06/12 03:07:05;;;;;;;6.75;5.07;;;;;;;;;;5011210;28;20113;-50
2021/06/12 03:09:32;;;;;;;6.50;5.10;;;;;;;;;;5009948;28;20109;-48
2021/06/12 03:11:58;;;;;;;8.30;5.88;;;;;;;;;;5012571;28;20057;-48
2021/06/12 03:14:26;;;;;;;5.72;5.10;;;;;;;;;;5015802;28;20037;-48
2021/06/12 03:16:52;;;;;;;7.60;5.65;;;;;;;;;;5011756;28;20029;-48
2021/06/12 03:19:18;;;;;;;7.25;5.57;;;;;;;;;;5011895;28;20045;-49
2021/06/12 03:21:44;;;;;;;6.35;5.35;;;;;;;;;;5012209;28;20126;-48
2021/06/12 03:24:11;;;;;;;7.57;4.95;;;;;;;;;;5011963;28;20014;-49
2021/06/12 03:26:38;;;;;;;6.47;5.15;;;;;;;;;;5011771;28;20025;-51
2021/06/12 03:29:04;;;;;;;6.68;5.55;;;;;;;;;;5015063;28;20021;-49
2021/06/12 03:31:31;;;;;;;7.15;5.50;;;;;;;;;;5015259;28;20065;-49
2021/06/12 03:33:57;;;;;;;9.02;5.40;;;;;;;;;;5020022;28;20489;-51
2021/06/12 03:36:25;;;;;;;6.78;5.35;;;;;;;;;;5011380;28;20116;-49
2021/06/12 03:38:51;;;;;;;6.57;5.10;;;;;;;;;;5021042;28;20026;-49
2021/06/12 03:41:17;;;;;;;7.82;5.25;;;;;;;;;;5006006;28;20378;-49
2021/06/12 03:43:44;;;;;;;6.60;5.00;;;;;;;;;;5011889;28;20529;-51
2021/06/12 03:46:13;;;;;;;8.18;5.20;;;;;;;;;;5010756;28;20117;-50
2021/06/12 03:48:40;;;;;;;7.07;4.63;;;;;;;;;;5011279;28;20345;-53
2021/06/12 03:51:06;;;;;;;7.15;4.90;;;;;;;;;;5014364;28;20110;-50
2021/06/12 03:53:43;;;;;;;10.60;6.03;;;;;;;;;;5011847;28;20057;-49
2021/06/12 03:56:10;;;;;;;7.80;4.90;;;;;;;;;;5011276;28;20105;-53
2021/06/12 03:58:36;;;;;;;5.57;4.43;;;;;;;;;;5011337;28;20026;-51
2021/06/12 04:01:02;;;;;;;5.45;4.50;;;;;;;;;;5012577;28;20037;-48
2021/06/12 04:03:28;;;;;;;6.05;5.13;;;;;;;;;;5011437;28;20030;-49
2021/06/12 04:05:54;;;;;;;8.88;5.60;;;;;;;;;;5022750;28;20104;-48
2021/06/12 04:08:20;;;;;;;6.95;4.78;;;;;;;;;;5010957;28;20029;-50
2021/06/12 04:10:46;;;;;;;6.57;5.10;;;;;;;;;;5013042;28;20481;-50
2021/06/12 04:13:11;;;;;;;7.65;5.32;;;;;;;;;;5013765;28;20026;-53
2021/06/12 04:15:37;;;;;;;6.47;4.90;;;;;;;;;;5014928;28;20100;-52
2021/06/12 04:18:07;;;;;;;6.13;5.10;;;;;;;;;;5013224;28;20492;-53
2021/06/12 04:20:34;;;;;;;6.15;5.55;;;;;;;;;;5014128;28;20033;-49
2021/06/12 04:23:00;;;;;;;6.38;4.55;;;;;;;;;;5015026;28;20033;-49
2021/06/12 04:25:26;;;;;;;7.28;5.38;;;;;;;;;;5014110;28;20498;-51
2021/06/12 04:27:52;;;;;;;7.20;4.95;;;;;;;;;;5014809;28;20133;-48
2021/06/12 04:30:20;;;;;;;5.35;4.75;;;;;;;;;;5017122;28;20041;-49
2021/06/12 04:32:46;;;;;;;5.60;4.32;;;;;;;;;;5014134;28;20045;-48
2021/06/12 04:35:13;;;;;;;5.68;5.07;;;;;;;;;;5014199;28;20437;-49
2021/06/12 04:37:39;;;;;;;7.25;5.13;;;;;;;;;;5014483;28;20042;-48
2021/06/12 04:40:05;;;;;;;9.32;5.80;;;;;;;;;;5013112;28;20037;-49
2021/06/12 04:42:31;;;;;;;8.63;5.03;;;;;;;;;;5014572;28;20040;-49
2021/06/12 04:44:57;;;;;;;7.25;4.78;;;;;;;;;;5014105;28;20026;-48
2021/06/12 04:47:23;;;;;;;7.00;5.40;;;;;;;;;;5013183;28;20026;-50
2021/06/12 04:49:49;;;;;;;6.75;5.20;;;;;;;;;;5019865;28;20026;-49
2021/06/12 04:52:15;;;;;;;6.95;5.05;;;;;;;;;;5016937;28;20034;-49
2021/06/12 04:54:41;;;;;;;8.73;4.72;;;;;;;;;;5015499;28;20034;-50
2021/06/12 04:57:07;;;;;;;6.65;4.50;;;;;;;;;;5013850;28;20500;-48
2021/06/12 04:59:33;;;;;;;6.72;5.03;;;;;;;;;;5013960;28;20102;-50
2021/06/12 05:01:59;;;;;;;5.20;4.57;;;;;;;;;;5016790;28;20358;-50
2021/06/12 05:04:25;;;;;;;7.93;4.38;;;;;;;;;;5014311;28;20096;-48
2021/06/12 05:06:51;;;;;;;6.10;4.60;;;;;;;;;;5013858;28;20446;-49
2021/06/12 05:09:17;;;;;;;7.10;5.00;;;;;;;;;;5013037;28;20036;-48
2021/06/12 05:11:43;;;;;;;5.97;4.80;;;;;;;;;;5013783;28;20044;-49
2021/06/12 05:14:09;;;;;;;5.20;4.18;;;;;;;;;;5013324;28;20041;-49
2021/06/12 05:16:39;;;;;;;7.00;5.18;;;;;;;;;;5013610;28;20434;-49
2021/06/12 05:19:05;;;;;;;7.07;4.68;;;;;;;;;;5013607;28;20042;-51
2021/06/12 05:21:36;;;;;;;6.95;5.03;;;;;;;;;;5017332;28;20029;-53
2021/06/12 05:24:03;;;;;;;5.15;3.55;;;;;;;;;;5012141;28;20137;-49
2021/06/12 05:26:29;;;;;;;6.38;4.50;;;;;;;;;;5013394;28;20168;-51
2021/06/12 05:28:55;;;;;;;8.57;3.90;;;;;;;;;;5012001;28;20029;-49
2021/06/12 05:31:21;;;;;;;5.50;4.25;;;;;;;;;;5013609;28;20038;-50
2021/06/12 05:33:47;;;;;;;6.45;4.03;;;;;;;;;;5016087;28;20401;-49
2021/06/12 05:36:13;;;;;;;4.47;3.83;;;;;;;;;;5013175;28;20049;-50
2021/06/12 05:38:39;;;;;;;5.22;3.55;;;;;;;;;;5023547;28;20030;-49
2021/06/12 05:41:05;;;;;;;3.90;3.50;;;;;;;;;;5013520;28;20076;-53
2021/06/12 05:43:32;;;;;;;4.70;3.25;;;;;;;;;;5010774;28;20164;-49
2021/06/12 05:45:58;;;;;;;3.83;3.00;;;;;;;;;;5013006;28;20026;-49
2021/06/12 05:48:27;;;;;;;3.35;2.88;;;;;;;;;;5012788;28;20026;-50
2021/06/12 05:50:53;;;;;;;3.08;2.78;;;;;;;;;;5013380;28;20029;-48
2021/06/12 05:53:20;;;;;;;3.85;2.78;;;;;;;;;;5012234;28;20091;-48
2021/06/12 05:55:46;;;;;;;2.67;2.47;;;;;;;;;;5012851;28;20054;-48
2021/06/12 05:58:12;;;;;;;3.45;2.50;;;;;;;;;;5021076;28;20056;-49
2021/06/12 06:00:38;;;;;;;3.63;3.08;;;;;;;;;;5016764;28;20034;-49
2021/06/12 06:03:04;;;;;;;4.28;2.90;;;;;;;;;;5013863;28;20425;-51
2021/06/12 06:05:30;;;;;;;3.25;2.72;;;;;;;;;;5011350;28;20026;-51
2021/06/12 06:07:56;;;;;;;3.22;2.70;;;;;;;;;;5022195;28;20053;-51
2021/06/12 06:10:22;;;;;;;3.00;2.70;;;;;;;;;;5010890;28;20030;-48
2021/06/12 06:12:48;;;;;;;2.78;2.50;;;;;;;;;;5013948;28;20374;-52
2021/06/12 06:15:15;;;;;;;3.20;2.60;;;;;;;;;;5011102;28;20112;-49
2021/06/12 06:17:42;;;;;;;5.65;2.80;;;;;;;;;;5012339;28;20115;-49
2021/06/12 06:20:09;;;;;;;3.33;2.00;;;;;;;;;;5012782;28;20116;-50
2021/06/12 06:22:35;;;;;;;3.00;2.25;;;;;;;;;;5011533;28;20030;-49
2021/06/12 06:25:01;;;;;;;3.38;2.42;;;;;;;;;;5020455;28;20033;-48
2021/06/12 06:27:27;;;;;;;4.22;3.15;;;;;;;;;;5010956;28;20029;-48
2021/06/12 06:29:53;;;;;;;5.22;2.67;;;;;;;;;;5011672;28;20044;-52
2021/06/12 06:32:19;;;;;;;3.58;2.53;;;;;;;;;;5011401;28;20054;-49
2021/06/12 06:34:45;;;;;;;4.00;2.80;;;;;;;;;;5012157;28;20057;-49
2021/06/12 06:37:11;;;;;;;3.95;3.00;;;;;;;;;;5021403;28;20397;-51
2021/06/12 06:39:37;;;;;;;4.32;2.80;;;;;;;;;;5012267;28;20038;-48
2021/06/12 06:42:03;;;;;;;4.78;3.40;;;;;;;;;;5011112;28;20046;-48
2021/06/12 06:44:32;;;;;;;4.75;2.70;;;;;;;;;;5011707;28;20041;-52
2021/06/12 06:46:58;;;;;;;9.75;3.58;;;;;;;;;;5010572;28;20362;-48
2021/06/12 06:49:24;;;;;;;5.13;4.07;;;;;;;;;;5010233;28;20029;-48
2021/06/12 06:51:50;;;;;;;5.82;3.92;;;;;;;;;;5027022;28;20606;-49
2021/06/12 06:54:16;;;;;;;4.03;3.42;;;;;;;;;;5027245;28;20440;-49
2021/06/12 06:56:42;;;;;;;5.15;3.45;;;;;;;;;;5021407;28;20043;-48
2021/06/12 06:59:08;;;;;;;5.18;3.28;;;;;;;;;;5014397;28;20037;-51
2021/06/12 07:01:36;;;;;;;4.65;3.00;;;;;;;;;;5020027;28;20032;-48
2021/06/12 07:04:02;;;;;;;3.88;2.88;;;;;;;;;;5013942;28;20041;-49
2021/06/12 07:06:28;;;;;;;7.50;3.78;;;;;;;;;;5022590;28;20048;-49
2021/06/12 07:08:54;;;;;;;7.28;4.50;;;;;;;;;;5014971;28;20034;-48
2021/06/12 07:11:20;;;;;;;5.57;3.50;;;;;;;;;;5011941;28;20068;-50
2021/06/12 07:13:46;;;;;;;3.60;2.92;;;;;;;;;;5014715;28;20026;-48
2021/06/12 07:16:12;;;;;;;5.95;3.30;;;;;;;;;;5027155;28;20034;-48
2021/06/12 07:18:38;;;;;;;7.22;3.30;;;;;;;;;;5021669;28;20466;-48
2021/06/12 07:21:04;;;;;;;6.60;4.05;;;;;;;;;;5021446;28;20389;-49
2021/06/12 07:23:30;;;;;;;4.53;4.05;;;;;;;;;;5013675;28;20025;-50
2021/06/12 07:25:56;;;;;;;6.20;4.28;;;;;;;;;;5023993;28;20133;-49
2021/06/12 07:28:22;;;;;;;5.60;3.72;;;;;;;;;;5026617;28;20030;-49
2021/06/12 07:30:48;;;;;;;6.25;4.22;;;;;;;;;;5028271;28;20022;-52
2021/06/12 07:33:15;;;;;;;5.45;3.63;;;;;;;;;;5011503;28;22248;-51
2021/06/12 07:35:42;;;;;;;8.07;4.60;;;;;;;;;;5005363;28;20083;-48
2021/06/12 07:38:08;;;;;;;5.15;3.40;;;;;;;;;;5014188;28;20488;-50
2021/06/12 07:40:34;;;;;;;7.40;5.13;;;;;;;;;;5027712;28;20040;-50
2021/06/12 07:43:00;;;;;;;14.18;4.18;;;;;;;;;;5010440;28;20030;-50
2021/06/12 07:45:26;;;;;;;5.90;3.95;;;;;;;;;;5010577;28;20065;-49
2021/06/12 07:47:52;;;;;;;7.32;3.67;;;;;;;;;;5011389;28;20026;-50
2021/06/12 07:50:18;;;;;;;13.40;4.95;;;;;;;;;;5019855;28;20021;-51
2021/06/12 07:52:44;;;;;;;8.68;5.38;;;;;;;;;;5028569;28;20037;-48
2021/06/12 07:55:11;;;;;;;7.15;4.63;;;;;;;;;;5023617;28;20033;-49
2021/06/12 07:57:37;;;;;;;6.80;4.72;;;;;;;;;;5031703;28;20056;-53
2021/06/12 08:00:10;;;;;;;5.72;4.32;;;;;;;;;;5024262;28;20405;-50
2021/06/12 08:02:36;;;;;;;8.20;5.47;;;;;;;;;;5024564;28;20117;-50
2021/06/12 08:05:02;;;;;;;7.95;5.80;;;;;;;;;;5024456;28;20087;-48
2021/06/12 08:07:28;;;;;;;9.20;6.47;;;;;;;;;;5030616;28;20359;-53
2021/06/12 08:09:54;;;;;;;9.90;6.90;;;;;;;;;;5031368;28;20057;-49
2021/06/12 08:12:20;;;;;;;11.13;6.75;;;;;;;;;;5017135;28;20041;-51
2021/06/12 08:14:46;;;;;;;15.20;6.38;;;;;;;;;;5014564;28;20026;-48
2021/06/12 08:17:12;;;;;;;114.93;10.10;;;;;;;;;;5023364;28;20112;-50
2021/06/12 08:19:38;;;;;;;12.73;5.63;;;;;;;;;;5014981;28;20041;-48
2021/06/12 08:22:04;;;;;;;8.75;6.10;;;;;;;;;;5014419;28;20037;-49
2021/06/12 08:24:31;;;;;;;9.65;6.13;;;;;;;;;;5014937;28;20413;-48
2021/06/12 08:26:57;;;;;;;14.10;6.68;;;;;;;;;;5014546;28;20022;-50
2021/06/12 08:29:23;;;;;;;10.00;6.97;;;;;;;;;;5014692;28;20022;-50
2021/06/12 08:31:49;;;;;;;14.98;7.43;;;;;;;;;;5015428;28;20046;-48
2021/06/12 08:34:15;;;;;;;9.15;5.80;;;;;;;;;;5021179;28;20030;-49
2021/06/12 08:36:41;;;;;;;12.15;7.30;;;;;;;;;;5014352;28;20390;-49
2021/06/12 08:39:07;;;;;;;13.27;6.55;;;;;;;;;;5015630;28;20036;-50
2021/06/12 08:41:33;;;;;;;10.63;6.60;;;;;;;;;;5014469;28;20121;-49
2021/06/12 08:44:00;;;;;;;11.65;6.97;;;;;;;;;;5012823;28;20396;-48
2021/06/12 08:46:26;;;;;;;12.48;7.22;;;;;;;;;;5014206;28;20030;-49
2021/06/12 08:48:52;;;;;;;12.82;7.22;;;;;;;;;;5014392;28;20557;-49
2021/06/12 08:51:18;;;;;;;12.60;8.38;;;;;;;;;;5020517;28;20025;-49
2021/06/12 08:53:44;;;;;;;11.02;7.63;;;;;;;;;;5018053;28;20033;-50
2021/06/12 08:56:10;;;;;;;11.43;7.30;;;;;;;;;;5015512;28;20037;-51
2021/06/12 08:58:36;;;;;;;14.27;7.60;;;;;;;;;;5012659;28;20145;-51
2021/06/12 09:01:03;;;;;;;16.13;8.50;;;;;;;;;;5018148;28;20036;-49
2021/06/12 09:03:29;;;;;;;11.35;6.38;;;;;;;;;;5016264;28;20038;-50
2021/06/12 09:05:57;;;;;;;9.18;6.25;;;;;;;;;;5012153;28;20431;-54
2021/06/12 09:08:25;;;;;;;8.55;6.07;;;;;;;;;;5014109;28;20033;-52
2021/06/12 09:11:20;;;;;;;11.15;6.65;;;;;;;;;;5014568;28;20033;-48
2021/06/12 09:13:53;;;;;;;12.02;6.43;;;;;;;;;;5015533;28;20041;-51
2021/06/12 09:16:37;;;;;;;14.50;6.72;;;;;;;;;;5027042;28;20124;-48
2021/06/12 09:19:03;;;;;;;;;;;;;;;;;;5013372;28;20432;-51
2021/06/12 09:21:35;;;;;;;9.20;6.03;;;;;;;;;;5013090;28;19949;-48
2021/06/12 09:24:01;;;;;;;9.73;6.28;;;;;;;;;;5022595;28;20032;-50
2021/06/12 09:26:47;;;;;;;10.45;6.70;;;;;;;;;;5016093;28;20030;-51
2021/06/12 09:29:17;;;;;;;13.45;5.75;;;;;;;;;;5031345;28;20018;-49
2021/06/12 09:31:45;;;;;;;13.38;5.75;;;;;;;;;;5025105;28;20056;-52
2021/06/12 09:34:13;;;;;;;14.52;6.82;;;;;;;;;;5022340;28;20402;-52
2021/06/12 09:36:39;;;;;;;7.13;5.35;;;;;;;;;;5018253;28;20037;-50
2021/06/12 09:39:08;;;;;;;8.93;5.70;;;;;;;;;;5012212;28;20025;-51
2021/06/12 09:41:34;;;;;;;7.47;5.50;;;;;;;;;;5012819;28;20034;-48
2021/06/12 09:44:00;;;;;;;9.57;5.45;;;;;;;;;;5013870;28;20018;-50
2021/06/12 09:46:29;;;;;;;9.10;5.00;;;;;;;;;;5015085;28;20112;-54
2021/06/12 09:48:59;;;;;;;6.38;4.78;;;;;;;;;;5014248;28;20472;-52
2021/06/12 09:51:25;;;;;;;7.53;4.57;;;;;;;;;;5016714;28;20044;-48
2021/06/12 09:53:52;;;;;;;8.98;5.22;;;;;;;;;;5020002;28;20072;-49
2021/06/12 09:56:19;;;;;;;9.35;5.63;;;;;;;;;;5014056;28;20101;-49
2021/06/12 09:58:45;;;;;;;6.88;4.57;;;;;;;;;;5014130;28;20153;-48
2021/06/12 10:01:12;;;;;;;6.43;4.95;;;;;;;;;;5010150;28;20105;-53
2021/06/12 10:03:38;;;;;;;5.82;4.50;;;;;;;;;;5019584;28;20108;-52
2021/06/12 10:06:10;;;;;;;8.52;5.38;;;;;;;;;;5007888;28;20030;-53
2021/06/12 10:08:36;;;;;;;5.55;3.85;;;;;;;;;;5012014;28;20025;-51
2021/06/12 10:11:02;;;;;;;7.55;4.72;;;;;;;;;;5010579;28;20029;-49
2021/06/12 10:13:29;;;;;;;10.40;4.47;;;;;;;;;;5015184;28;20026;-52
2021/06/12 10:15:55;;;;;;;6.50;4.30;;;;;;;;;;5012526;28;20582;-55
2021/06/12 10:18:22;;;;;;;5.70;4.28;;;;;;;;;;5013285;28;20108;-49
2021/06/12 10:20:48;;;;;;;9.75;4.43;;;;;;;;;;5011968;28;20034;-52
2021/06/12 10:23:15;;;;;;;7.88;4.45;;;;;;;;;;5012060;28;20101;-49
2021/06/12 10:25:41;;;;;;;7.55;4.45;;;;;;;;;;5011955;28;20544;-54
2021/06/12 10:28:07;;;;;;;5.85;3.85;;;;;;;;;;5014096;28;20113;-54
2021/06/12 10:30:34;;;;;;;5.03;4.03;;;;;;;;;;5019598;28;20359;-51
2021/06/12 10:33:00;;;;;;;6.85;4.30;;;;;;;;;;5018952;28;20147;-54
2021/06/12 10:35:28;;;;;;;8.90;5.07;;;;;;;;;;5015914;28;20033;-50
2021/06/12 10:37:55;;;;;;;6.65;4.10;;;;;;;;;;5028871;28;20722;-55
2021/06/12 10:40:42;;;;;;;7.75;4.20;;;;;;;;;;5014161;28;20036;-50
2021/06/12 10:43:09;;;;;;;5.07;3.80;;;;;;;;;;5012853;28;20588;-51
2021/06/12 10:45:35;;;;;;;5.07;3.05;;;;;;;;;;5012790;28;20626;-52
2021/06/12 10:48:01;;;;;;;5.43;3.00;;;;;;;;;;5010670;28;20113;-51
2021/06/12 10:50:27;;;;;;;4.85;3.42;;;;;;;;;;5011417;28;20771;-50
2021/06/12 10:53:11;;;;;;;2.83;2.40;;;;;;;;;;5010905;28;20033;-50
2021/06/12 10:55:44;;;;;;;5.65;3.50;;;;;;;;;;5013243;28;20104;-49
2021/06/12 10:58:29;;;;;;;3.95;2.83;;;;;;;;;;5012027;28;20386;-50
2021/06/12 11:01:07;;;;;;;5.43;2.78;;;;;;;;;;5026228;28;20028;-51
2021/06/12 11:04:03;;;;;;;6.65;2.97;;;;;;;;;;5023731;28;20059;-49
2021/06/12 11:06:48;;;;;;;4.15;2.58;;;;;;;;;;5015429;28;21128;-49
2021/06/12 11:09:14;;;;;;;4.97;3.25;;;;;;;;;;5004849;28;20029;-48
2021/06/12 11:11:44;;;;;;;5.93;3.60;;;;;;;;;;5013945;28;20117;-50
2021/06/12 11:14:33;;;;;;;7.63;3.92;;;;;;;;;;5019422;28;20033;-50
2021/06/12 11:17:12;;;;;;;10.40;4.07;;;;;;;;;;5016904;28;20048;-51
2021/06/12 11:19:49;;;;;;;11.82;4.00;;;;;;;;;;5023172;28;20045;-50
2021/06/12 11:22:31;;;;;;;5.90;3.17;;;;;;;;;;5027416;28;20030;-50
2021/06/12 11:25:17;;;;;;;3.80;2.50;;;;;;;;;;5009759;28;20546;-49
2021/06/12 11:27:43;;;;;;;3.78;2.58;;;;;;;;;;5004407;28;20033;-50
2021/06/12 11:30:10;;;;;;;7.25;3.15;;;;;;;;;;5023336;28;20366;-50
2021/06/12 11:32:36;;;;;;;6.65;2.25;;;;;;;;;;5022431;28;20480;-48
2021/06/12 11:35:03;;;;;;;4.47;2.83;;;;;;;;;;5013944;28;20026;-49
2021/06/12 11:37:29;;;;;;;3.88;2.88;;;;;;;;;;5012605;28;20033;-49
2021/06/12 11:39:56;;;;;;;4.45;2.38;;;;;;;;;;5025478;28;20101;-48
2021/06/12 11:42:23;;;;;;;4.57;2.65;;;;;;;;;;5027954;28;20073;-49
2021/06/12 11:44:49;;;;;;;3.55;2.10;;;;;;;;;;5025771;28;20038;-52
2021/06/12 11:47:25;;;;;;;3.42;2.33;;;;;;;;;;5022009;28;20037;-51
2021/06/12 11:49:51;;;;;;;5.13;2.42;;;;;;;;;;5021000;28;20033;-54
2021/06/12 11:52:17;;;;;;;4.10;2.60;;;;;;;;;;5029857;28;20030;-49
2021/06/12 11:54:44;;;;;;;4.40;2.50;;;;;;;;;;5016964;28;20037;-51
2021/06/12 11:57:10;;;;;;;3.78;2.65;;;;;;;;;;5022148;28;20048;-49
2021/06/12 11:59:36;;;;;;;6.15;2.58;;;;;;;;;;5015895;28;20034;-49
2021/06/12 12:02:06;;;;;;;3.65;2.45;;;;;;;;;;5017851;28;20362;-49
2021/06/12 12:04:33;;;;;;;3.38;2.67;;;;;;;;;;5028292;28;20034;-49
2021/06/12 12:06:59;;;;;;;4.80;2.38;;;;;;;;;;5015209;28;20122;-50
2021/06/12 12:09:27;;;;;;;3.20;2.03;;;;;;;;;;5017950;28;20519;-49
2021/06/12 12:11:54;;;;;;;5.85;2.90;;;;;;;;;;5014763;28;20026;-52
2021/06/12 12:14:26;;;;;;;10.18;2.38;;;;;;;;;;5031324;28;20029;-50
2021/06/12 12:16:52;;;;;;;10.27;1.98;;;;;;;;;;5028428;28;20393;-48
2021/06/12 12:19:18;;;;;;;5.97;1.90;;;;;;;;;;5022352;28;20125;-50
2021/06/12 12:21:44;;;;;;;3.78;2.03;;;;;;;;;;5022702;28;20029;-49
2021/06/12 12:24:12;;;;;;;3.38;2.22;;;;;;;;;;5023410;28;20144;-48
2021/06/12 12:26:39;;;;;;;4.30;2.03;;;;;;;;;;5025460;28;20025;-49
2021/06/12 12:29:16;;;;;;;7.10;1.90;;;;;;;;;;5014473;28;20018;-48
2021/06/12 12:31:43;;;;;;;3.42;2.40;;;;;;;;;;5017812;28;20045;-51
2021/06/12 12:34:10;;;;;;;5.60;2.67;;;;;;;;;;5014870;28;20370;-52
2021/06/12 12:36:46;;;;;;;4.32;2.83;;;;;;;;;;5014589;28;20109;-52
2021/06/12 12:39:13;;;;;;;3.28;2.10;;;;;;;;;;5015019;28;20038;-48
2021/06/12 12:41:39;;;;;;;3.35;2.45;;;;;;;;;;5009563;28;20076;-49
2021/06/12 12:44:17;;;;;;;14.77;3.10;;;;;;;;;;5014524;28;20030;-51
2021/06/12 12:46:44;;;;;;;3.38;2.58;;;;;;;;;;5017501;28;20056;-51
2021/06/12 12:49:10;;;;;;;6.00;2.58;;;;;;;;;;5014717;28;20030;-54
2021/06/12 12:51:36;;;;;;;3.83;2.70;;;;;;;;;;5013521;28;20045;-48
2021/06/12 12:54:12;;;;;;;3.63;2.10;;;;;;;;;;5014540;28;20022;-49
2021/06/12 12:56:45;;;;;;;4.63;2.78;;;;;;;;;;5015437;28;20482;-48
2021/06/12 12:59:11;;;;;;;5.18;2.83;;;;;;;;;;5015575;28;20052;-51
2021/06/12 13:01:37;;;;;;;4.10;2.78;;;;;;;;;;5014652;28;20035;-48
2021/06/12 13:04:06;;;;;;;7.28;2.88;;;;;;;;;;5015538;28;20029;-50
2021/06/12 13:06:36;;;;;;;4.82;2.92;;;;;;;;;;5011916;28;20026;-48
2021/06/12 13:09:05;;;;;;;6.13;2.55;;;;;;;;;;5015754;28;20022;-50
2021/06/12 13:11:40;;;;;;;4.18;3.00;;;;;;;;;;5013961;28;20511;-49
2021/06/12 13:14:06;;;;;;;4.07;3.10;;;;;;;;;;5017488;28;20503;-48
2021/06/12 13:16:32;;;;;;;8.13;3.08;;;;;;;;;;5013507;28;20026;-49
2021/06/12 13:19:12;;;;;;;7.57;3.28;;;;;;;;;;5014188;28;20493;-54
2021/06/12 13:21:47;;;;;;;5.10;3.22;;;;;;;;;;5013081;28;20022;-53
2021/06/12 13:24:13;;;;;;;6.97;3.17;;;;;;;;;;5012521;28;20049;-53
2021/06/12 13:26:40;;;;;;;4.97;3.50;;;;;;;;;;5011734;28;20030;-54
2021/06/12 13:29:20;;;;;;;4.95;3.80;;;;;;;;;;5014039;28;20026;-52
2021/06/12 13:31:48;;;;;;;4.22;3.30;;;;;;;;;;5014116;28;20093;-53
2021/06/12 13:34:24;;;;;;;4.95;3.70;;;;;;;;;;5013957;28;20037;-53
2021/06/12 13:36:56;;;;;;;4.88;3.15;;;;;;;;;;5006331;28;20030;-53
2021/06/12 13:39:48;;;;;;;5.88;3.33;;;;;;;;;;5014803;28;20439;-50
2021/06/12 13:42:14;;;;;;;6.10;3.15;;;;;;;;;;5015890;28;20041;-53
2021/06/12 13:44:46;;;;;;;4.38;3.67;;;;;;;;;;5025354;28;20504;-51
2021/06/12 13:47:12;;;;;;;4.38;2.80;;;;;;;;;;5029636;28;20029;-50
2021/06/12 13:49:39;;;;;;;5.93;3.25;;;;;;;;;;5028510;28;20104;-53
2021/06/12 13:52:05;;;;;;;5.28;3.55;;;;;;;;;;5013288;28;20061;-49
2021/06/12 13:54:31;;;;;;;4.68;3.22;;;;;;;;;;5015059;28;20022;-49
2021/06/12 13:56:57;;;;;;;5.40;3.13;;;;;;;;;;5013673;28;20386;-54
2021/06/12 13:59:23;;;;;;;5.10;3.40;;;;;;;;;;5014881;28;20033;-49
2021/06/12 14:01:50;;;;;;;3.63;3.10;;;;;;;;;;5015909;28;20034;-48
2021/06/12 14:04:16;;;;;;;4.20;2.78;;;;;;;;;;5030186;28;20074;-48
2021/06/12 14:06:42;;;;;;;7.03;3.75;;;;;;;;;;5011512;28;20550;-49
2021/06/12 14:09:08;;;;;;;6.80;3.35;;;;;;;;;;5026867;28;20048;-48
2021/06/12 14:11:34;;;;;;;5.50;3.67;;;;;;;;;;5019179;28;20034;-49
2021/06/12 14:14:00;;;;;;;5.07;3.20;;;;;;;;;;5032767;28;20030;-48
2021/06/12 14:16:26;;;;;;;6.22;2.97;;;;;;;;;;5018992;28;20045;-51
2021/06/12 14:18:52;;;;;;;7.50;2.58;;;;;;;;;;5017156;28;20112;-49
2021/06/12 14:21:19;;;;;;;7.07;2.70;;;;;;;;;;5017572;28;20030;-49
2021/06/12 14:23:45;;;;;;;7.38;3.00;;;;;;;;;;5019207;28;20033;-48
2021/06/12 14:26:13;;;;;;;5.38;3.22;;;;;;;;;;5020616;28;20026;-50
2021/06/12 14:28:39;;;;;;;6.03;2.80;;;;;;;;;;5022827;28;20492;-48
2021/06/12 14:31:05;;;;;;;6.20;2.58;;;;;;;;;;5030115;28;20029;-49
2021/06/12 14:33:32;;;;;;;4.88;2.40;;;;;;;;;;5020779;28;20168;-54
2021/06/12 14:35:58;;;;;;;6.65;2.90;;;;;;;;;;5011634;28;20038;-51
2021/06/12 14:38:24;;;;;;;6.72;2.90;;;;;;;;;;5011253;28;20037;-52
2021/06/12 14:40:50;;;;;;;6.47;2.47;;;;;;;;;;5006740;28;20470;-50
2021/06/12 14:43:16;;;;;;;6.75;2.13;;;;;;;;;;5021661;28;20033;-48